createdAt,value
2019-02-07T00:02:33.963Z,0.00
2019-02-07T00:06:40.438Z,0.30
2019-02-07T00:10:48.248Z,0.30
2019-02-07T00:15:00.358Z,0.10
2019-02-07T00:19:09.162Z,-0.20
2019-02-07T00:23:17.864Z,-0.10
2019-02-07T00:27:25.645Z,-0.30
2019-02-07T00:35:39.741Z,-0.50
2019-02-07T00:39:47.527Z,-0.50
2019-02-07T00:43:55.112Z,-0.30
2019-02-07T00:48:02.127Z,-0.30
2019-02-07T00:52:09.059Z,-0.30
2019-02-07T00:56:15.189Z,-0.60
2019-02-07T01:00:23.185Z,-0.60
2019-02-07T01:04:29.586Z,-0.80
2019-02-07T01:08:57.023Z,-0.40
2019-02-07T01:13:03.603Z,-0.50
2019-02-07T01:17:11.083Z,-0.60
2019-02-07T01:21:19.070Z,-0.60
2019-02-07T01:25:26.477Z,-0.60
2019-02-07T01:33:41.759Z,-0.70
2019-02-07T01:37:48.327Z,-0.60
2019-02-07T01:41:53.998Z,-0.80
2019-02-07T01:46:00.358Z,-0.70
2019-02-07T01:50:09.770Z,-1.00
2019-02-07T01:54:35.543Z,-0.80
2019-02-07T01:58:43.103Z,-0.80
2019-02-07T02:07:00.754Z,-0.90
2019-02-07T02:11:07.144Z,-0.90
2019-02-07T02:15:24.009Z,-1.00
2019-02-07T02:19:22.795Z,-1.00
2019-02-07T02:23:34.437Z,-0.70
2019-02-07T02:27:41.920Z,-0.80
2019-02-07T02:31:48.419Z,-0.80
2019-02-07T02:35:55.081Z,-1.10
2019-02-07T02:40:03.023Z,-0.90
2019-02-07T02:44:13.351Z,-0.80
2019-02-07T02:48:19.994Z,-0.80
2019-02-07T02:52:27.700Z,-0.80
2019-02-07T02:57:16.147Z,-0.90
2019-02-07T03:01:30.461Z,-1.00
2019-02-07T03:05:48.817Z,1.00
2019-02-07T03:10:15.207Z,-1.00
2019-02-07T03:14:34.610Z,-1.00
2019-02-07T03:18:55.659Z,-0.90
2019-02-07T03:23:14.817Z,-0.90
2019-02-07T03:27:41.883Z,-0.90
2019-02-07T03:31:56.329Z,-0.80
2019-02-07T03:36:15.414Z,-0.80
2019-02-07T03:40:45.614Z,-1.00
2019-02-07T03:45:13.176Z,-1.00
2019-02-07T03:49:36.071Z,-1.10
2019-02-07T03:54:01.271Z,-1.10
2019-02-07T03:58:15.587Z,-1.20
2019-02-07T04:02:34.208Z,-1.20
2019-02-07T04:06:56.426Z,-1.20
2019-02-07T04:11:15.339Z,-1.10
2019-02-07T04:15:40.974Z,-1.00
2019-02-07T04:20:06.182Z,-1.00
2019-02-07T04:24:35.208Z,-1.10
2019-02-07T04:29:01.987Z,-1.10
2019-02-07T04:33:27.622Z,-1.10
2019-02-07T04:37:54.217Z,-1.00
2019-02-07T04:42:22.564Z,-1.20
2019-02-07T04:46:47.747Z,-1.10
2019-02-07T04:51:11.309Z,-1.20
2019-02-07T04:55:38.034Z,-1.30
2019-02-07T04:59:54.455Z,-1.20
2019-02-07T05:04:20.506Z,-1.10
2019-02-07T05:08:34.351Z,-1.20
2019-02-07T05:17:16.159Z,-1.10
2019-02-07T05:21:34.146Z,0.70
2019-02-07T05:25:58.671Z,-1.10
2019-02-07T05:30:13.861Z,-1.10
2019-02-07T05:34:36.554Z,-1.10
2019-02-07T05:38:50.777Z,-1.00
2019-02-07T05:43:20.316Z,-1.00
2019-02-07T05:47:35.602Z,-1.00
2019-02-07T05:52:01.659Z,-1.10
2019-02-07T06:00:34.425Z,-0.90
2019-02-07T06:04:48.271Z,-1.00
2019-02-07T06:08:55.218Z,-0.90
2019-02-07T06:13:14.064Z,-1.00
2019-02-07T06:17:39.986Z,-0.90
2019-02-07T06:21:55.311Z,-0.80
2019-02-07T06:26:14.521Z,-0.70
2019-02-07T06:30:31.068Z,-0.70
2019-02-07T06:34:55.628Z,-0.60
2019-02-07T06:39:14.055Z,-0.40
2019-02-07T06:43:27.704Z,-0.30
2019-02-07T06:52:10.527Z,0.00
2019-02-07T07:00:40.164Z,0.10
2019-02-07T07:05:05.377Z,0.20
2019-02-07T07:09:32.257Z,0.30
2019-02-07T07:13:50.087Z,0.40
2019-02-07T07:17:59.116Z,-1.90
2019-02-07T07:22:25.239Z,0.80
2019-02-07T07:26:39.450Z,1.00
2019-02-07T07:31:06.385Z,1.40
2019-02-07T07:35:21.439Z,1.50
2019-02-07T07:39:39.061Z,1.50
2019-02-07T07:44:04.650Z,1.70
2019-02-07T07:48:29.951Z,2.00
2019-02-07T07:53:00.925Z,2.10
2019-02-07T08:01:40.509Z,2.60
2019-02-07T08:06:00.641Z,1.00
2019-02-07T08:10:28.157Z,3.00
2019-02-07T08:14:53.556Z,3.10
2019-02-07T08:18:59.343Z,3.30
2019-02-07T08:23:20.765Z,3.30
2019-02-07T08:27:39.702Z,3.50
2019-02-07T08:32:00.421Z,3.30
2019-02-07T08:36:19.587Z,3.50
2019-02-07T08:40:45.757Z,3.40
2019-02-07T08:45:11.769Z,3.50
2019-02-07T08:49:40.785Z,3.70
2019-02-07T08:53:59.059Z,3.90
2019-02-07T08:58:18.958Z,4.00
2019-02-07T09:02:35.212Z,4.10
2019-02-07T09:07:21.689Z,4.30
2019-02-07T09:11:40.762Z,4.50
2019-02-07T09:16:00.435Z,4.60
2019-02-07T09:20:20.403Z,5.00
2019-02-07T09:24:40.733Z,5.30
2019-02-07T09:29:00.833Z,5.40
2019-02-07T09:33:19.030Z,5.30
2019-02-07T09:37:45.167Z,5.30
2019-02-07T09:42:10.310Z,5.50
2019-02-07T09:46:19.395Z,5.70
2019-02-07T09:50:44.659Z,5.80
2019-02-07T09:55:00.315Z,6.20
2019-02-07T09:59:19.269Z,6.20
2019-02-07T10:03:45.533Z,6.40
2019-02-07T10:07:59.709Z,6.50
2019-02-07T10:12:26.265Z,6.30
2019-02-07T10:16:51.615Z,6.10
2019-02-07T10:25:39.087Z,6.00
2019-02-07T10:29:59.406Z,6.40
2019-02-07T10:34:26.254Z,6.60
2019-02-07T10:38:39.364Z,6.60
2019-02-07T10:43:00.382Z,6.90
2019-02-07T10:47:21.138Z,7.00
2019-02-07T10:51:39.235Z,7.10
2019-02-07T10:56:07.891Z,7.30
2019-02-07T11:00:36.315Z,7.60
2019-02-07T11:05:07.119Z,7.40
2019-02-07T11:09:33.583Z,7.60
2019-02-07T11:13:41.294Z,7.80
2019-02-07T11:22:20.037Z,7.90
2019-02-07T11:30:59.316Z,8.40
2019-02-07T11:35:26.315Z,8.70
2019-02-07T11:39:40.911Z,8.40
2019-02-07T11:44:06.454Z,8.80
2019-02-07T11:48:31.910Z,9.20
2019-02-07T11:57:25.113Z,9.30
2019-02-07T12:01:50.587Z,9.00
2019-02-07T12:06:16.197Z,8.90
2019-02-07T12:10:42.262Z,8.90
2019-02-07T12:15:08.097Z,8.70
2019-02-07T12:19:33.364Z,8.40
2019-02-07T12:24:00.789Z,8.20
2019-02-07T12:28:27.081Z,8.50
2019-02-07T12:32:40.554Z,8.60
2019-02-07T12:36:59.185Z,8.50
2019-02-07T12:41:26.415Z,8.50
2019-02-07T12:45:39.304Z,8.50
2019-02-07T12:50:02.451Z,8.60
2019-02-07T12:54:20.710Z,8.40
2019-02-07T12:58:44.084Z,8.30
2019-02-07T13:03:09.296Z,8.20
2019-02-07T13:07:45.196Z,8.40
2019-02-07T13:12:10.740Z,8.50
2019-02-07T13:16:36.153Z,8.40
2019-02-07T13:25:20.534Z,8.60
2019-02-07T13:29:47.019Z,8.70
2019-02-07T13:34:13.280Z,8.50
2019-02-07T13:38:39.605Z,8.50
2019-02-07T13:43:01.889Z,8.60
2019-02-07T13:47:19.080Z,8.70
2019-02-07T13:51:36.132Z,8.50
2019-02-07T13:56:01.155Z,8.50
2019-02-07T14:00:23.333Z,8.00
2019-02-07T14:04:47.342Z,8.00
2019-02-07T14:08:59.506Z,8.00
2019-02-07T14:13:24.876Z,7.90
2019-02-07T14:17:41.368Z,8.20
2019-02-07T14:21:59.511Z,7.80
2019-02-07T14:26:19.456Z,7.70
2019-02-07T14:30:45.012Z,7.50
2019-02-07T14:35:11.281Z,7.40
2019-02-07T14:44:25.360Z,6.90
2019-02-07T14:48:31.676Z,6.70
2019-02-07T14:52:40.872Z,6.60
2019-02-07T14:56:47.250Z,6.40
2019-02-07T15:00:53.541Z,6.40
2019-02-07T15:05:02.361Z,6.10
2019-02-07T15:09:24.158Z,6.00
2019-02-07T15:13:31.298Z,5.90
2019-02-07T15:17:39.508Z,5.80
2019-02-07T15:21:45.793Z,5.60
2019-02-07T15:25:52.315Z,5.70
2019-02-07T15:34:45.871Z,5.30
2019-02-07T15:38:52.221Z,5.10
2019-02-07T15:43:02.605Z,4.90
2019-02-07T15:47:11.006Z,4.90
2019-02-07T15:51:19.845Z,4.80
2019-02-07T15:55:26.753Z,4.80
2019-02-07T15:59:40.393Z,4.80
2019-02-07T16:03:56.156Z,4.70
2019-02-07T16:08:02.810Z,0.40
2019-02-07T16:12:09.163Z,4.40
2019-02-07T16:16:20.237Z,4.50
2019-02-07T16:20:28.536Z,4.40
2019-02-07T16:24:35.016Z,4.30
2019-02-07T16:28:42.165Z,4.10
2019-02-07T16:32:48.944Z,4.40
2019-02-07T16:36:55.620Z,4.40
2019-02-07T16:41:22.410Z,4.30
2019-02-07T16:45:29.818Z,4.10
2019-02-07T16:49:40.366Z,4.00
2019-02-07T16:53:46.751Z,4.10
2019-02-07T16:57:54.129Z,4.10
2019-02-07T17:02:00.791Z,4.20
2019-02-07T17:06:08.180Z,4.00
2019-02-07T17:14:27.652Z,4.10
2019-02-07T17:18:34.254Z,4.00
2019-02-07T17:22:41.545Z,3.90
2019-02-07T17:26:47.925Z,3.70
2019-02-07T17:30:54.586Z,3.70
2019-02-07T17:35:05.208Z,3.70
2019-02-07T17:39:12.041Z,3.50
2019-02-07T17:43:19.589Z,3.50
2019-02-07T17:47:26.664Z,3.40
2019-02-07T17:51:33.147Z,3.30
2019-02-07T17:55:43.445Z,3.20
2019-02-07T17:59:49.954Z,3.10
2019-02-07T18:03:59.062Z,3.10
2019-02-07T18:08:07.135Z,3.20
2019-02-07T18:12:13.801Z,3.10
2019-02-07T18:16:22.050Z,3.20
2019-02-07T18:20:28.872Z,3.20
2019-02-07T18:24:35.281Z,3.00
2019-02-07T18:33:46.094Z,3.10
2019-02-07T18:37:53.341Z,2.70
2019-02-07T18:41:59.834Z,2.90
2019-02-07T18:46:06.540Z,2.80
2019-02-07T18:50:12.161Z,2.60
2019-02-07T18:54:18.487Z,2.60
2019-02-07T18:58:24.913Z,2.40
2019-02-07T19:02:33.136Z,2.40
2019-02-07T19:06:40.619Z,2.30
2019-02-07T19:15:12.329Z,2.20
2019-02-07T19:19:18.648Z,2.30
2019-02-07T19:23:25.543Z,2.40
2019-02-07T19:27:33.393Z,2.40
2019-02-07T19:31:40.770Z,2.40
2019-02-07T19:35:55.958Z,2.50
2019-02-07T19:40:02.435Z,2.40
2019-02-07T19:44:14.471Z,2.30
2019-02-07T19:48:21.311Z,2.30
2019-02-07T19:52:28.164Z,2.20
2019-02-07T19:56:55.740Z,2.20
2019-02-07T20:01:02.159Z,2.20
2019-02-07T20:05:16.687Z,2.20
2019-02-07T20:09:43.312Z,2.20
2019-02-07T20:13:51.392Z,2.10
2019-02-07T20:17:59.934Z,2.00
2019-02-07T20:22:19.522Z,2.00
2019-02-07T20:26:17.100Z,4.60
2019-02-07T20:30:31.122Z,1.90
2019-02-07T20:34:39.004Z,1.80
2019-02-07T20:38:45.955Z,1.70
2019-02-07T20:42:52.626Z,1.90
2019-02-07T20:47:06.755Z,1.90
2019-02-07T20:51:13.162Z,1.80
2019-02-07T20:59:28.023Z,1.70
2019-02-07T21:03:35.302Z,1.70
2019-02-07T21:07:43.122Z,1.70
2019-02-07T21:11:50.631Z,1.70
2019-02-07T21:15:57.610Z,1.70
2019-02-07T21:20:07.544Z,1.70
2019-02-07T21:24:14.245Z,1.90
2019-02-07T21:28:23.717Z,2.00
2019-02-07T21:32:31.305Z,1.90
2019-02-07T21:36:39.298Z,1.80
2019-02-07T21:41:05.204Z,1.70
2019-02-07T21:45:13.161Z,1.70
2019-02-07T21:49:24.611Z,1.70
2019-02-07T21:53:29.378Z,1.70
2019-02-07T21:57:36.308Z,1.40
2019-02-07T22:01:43.497Z,1.30
2019-02-07T22:05:49.921Z,1.10
2019-02-07T22:09:59.390Z,1.30
2019-02-07T22:14:07.742Z,3.00
2019-02-07T22:18:14.403Z,1.10
2019-02-07T22:26:28.900Z,1.40
2019-02-07T22:30:35.913Z,1.50
2019-02-07T22:34:43.621Z,1.50
2019-02-07T22:38:49.975Z,1.40
2019-02-07T22:42:57.933Z,1.20
2019-02-07T22:47:04.838Z,1.30
2019-02-07T22:51:11.363Z,1.60
2019-02-07T22:55:18.303Z,1.80
2019-02-07T22:59:45.887Z,1.70
2019-02-07T23:03:54.023Z,3.60
2019-02-07T23:08:03.660Z,1.90
2019-02-07T23:12:10.540Z,2.00
2019-02-07T23:16:18.134Z,2.00
2019-02-07T23:20:43.770Z,2.00
2019-02-07T23:24:50.611Z,2.10
2019-02-07T23:28:56.914Z,2.30
2019-02-07T23:33:09.248Z,2.20
2019-02-07T23:37:15.707Z,2.20
2019-02-07T23:41:22.808Z,2.30
2019-02-07T23:45:29.102Z,2.50
2019-02-07T23:49:36.410Z,2.60
2019-02-07T23:57:49.446Z,2.60
